SAOC/RCU METAR and TAF weather

Enter ICAO airport designator
Station Type Date Time Source
SAOC METAR 2019/04/18 10:00 UTC NOAA

SAOC 181000Z 36007KT 5000 BR FEW045 BKN200 15/14 Q1011


Station Type Date Time Source
SAOC Decoded METAR 2019/04/18 10:00 UTC NOAA

Rio Cuarto Aerodrome, Argentina (SAOC) 33-07S 064-14W 421M
Apr 18, 2019 - 06:00 AM EDT / 2019.04.18 1000 UTC
Wind: from the N (360 degrees) at 8 MPH (7 KT):0
Visibility: 3 mile(s):0
Sky conditions: mostly cloudy
Weather: mist
Temperature: 59 F (15 C)
Dew Point: 57 F (14 C)
Relative Humidity: 93%
Pressure (altimeter): 29.85 in. Hg (1011 hPa)
ob: SAOC 181000Z 36007KT 5000 BR FEW045 BKN200 15/14 Q1011
cycle: 10

Station Type Date Time Source
SAOC TAF 2019/04/05 06:24 UTC NOAA

TAF TAF SAOC 050500Z 0506/0606 20015KT 9999 SCT030 TX20/0518Z TN09/0510Z
BECMG 0510/0513 23005KT 9999 SCT030 TAF

Example: see airport list